createdAt,value
2023-03-11T00:01:45.351Z,26.23
2023-03-11T00:04:18.634Z,21.25
2023-03-11T00:06:48.913Z,23.70
2023-03-11T00:09:18.693Z,22.38
2023-03-11T00:11:48.968Z,23.05
2023-03-11T00:14:18.831Z,19.13
2023-03-11T00:16:49.080Z,22.88
2023-03-11T00:19:19.138Z,31.73
2023-03-11T00:21:49.430Z,24.02
2023-03-11T00:24:19.009Z,23.40
2023-03-11T00:26:48.805Z,26.20
2023-03-11T00:29:19.168Z,24.98
2023-03-11T00:31:49.013Z,23.98
2023-03-11T00:34:19.434Z,21.10
2023-03-11T00:36:49.283Z,22.00
2023-03-11T00:39:19.520Z,24.35
2023-03-11T00:41:49.128Z,23.42
2023-03-11T00:44:21.101Z,25.80
2023-03-11T00:46:50.938Z,26.27
2023-03-11T00:49:21.171Z,23.00
2023-03-11T00:51:51.050Z,29.95
2023-03-11T00:54:21.358Z,20.60
2023-03-11T00:56:51.413Z,25.23
2023-03-11T00:59:22.009Z,23.27
2023-03-11T01:01:51.943Z,25.60
2023-03-11T01:04:24.248Z,22.58
2023-03-11T01:06:54.305Z,26.67
2023-03-11T01:09:24.865Z,22.98
2023-03-11T01:11:55.826Z,18.33
2023-03-11T01:14:26.743Z,27.42
2023-03-11T01:16:57.626Z,19.75
2023-03-11T01:19:27.884Z,20.88
2023-03-11T01:21:58.413Z,19.17
2023-03-11T01:24:28.632Z,19.13
2023-03-11T01:26:58.284Z,19.05
2023-03-11T01:29:28.525Z,16.33
2023-03-11T01:32:00.416Z,21.08
2023-03-11T01:34:30.215Z,19.67
2023-03-11T01:37:01.319Z,19.23
2023-03-11T01:39:31.237Z,22.00
2023-03-11T01:42:01.582Z,19.98
2023-03-11T01:44:31.523Z,35.42
2023-03-11T01:47:03.310Z,27.20
2023-03-11T01:49:35.764Z,23.83
2023-03-11T01:52:11.346Z,23.73
2023-03-11T01:54:51.847Z,24.17
2023-03-11T01:57:32.259Z,25.35
2023-03-11T02:00:07.342Z,64.75
2023-03-11T02:02:50.890Z,75.15
2023-03-11T02:05:26.591Z,45.47
2023-03-11T02:07:57.703Z,31.17
2023-03-11T02:10:32.752Z,29.58
2023-03-11T02:13:05.346Z,24.85
2023-03-11T02:15:35.594Z,27.85
2023-03-11T02:18:08.099Z,32.15
2023-03-11T02:20:50.323Z,49.05
2023-03-11T02:23:23.869Z,40.28
2023-03-11T02:26:22.797Z,31.92
2023-03-11T02:28:55.253Z,29.30
2023-03-11T02:31:26.543Z,36.03
2023-03-11T02:33:59.345Z,29.30
2023-03-11T02:36:34.786Z,27.73
2023-03-11T02:39:07.632Z,30.10
2023-03-11T02:41:47.320Z,31.05
2023-03-11T02:44:18.567Z,30.85
2023-03-11T02:46:48.615Z,30.90
2023-03-11T02:49:19.574Z,34.28
2023-03-11T02:51:49.426Z,30.13
2023-03-11T02:54:19.875Z,30.70
2023-03-11T02:56:49.852Z,27.95
2023-03-11T02:59:21.598Z,29.88
2023-03-11T03:01:52.009Z,31.85
2023-03-11T03:04:23.727Z,31.63
2023-03-11T03:06:53.609Z,32.50
2023-03-11T03:09:23.970Z,29.15
2023-03-11T03:11:53.560Z,25.70
2023-03-11T03:14:23.543Z,33.92
2023-03-11T03:16:54.047Z,27.17
2023-03-11T03:19:23.911Z,27.35
2023-03-11T03:21:54.174Z,28.10
2023-03-11T03:24:25.972Z,30.77
2023-03-11T03:26:55.725Z,32.40
2023-03-11T03:29:26.064Z,28.83
2023-03-11T03:31:56.413Z,39.40
2023-03-11T03:34:27.058Z,29.42
2023-03-11T03:36:57.105Z,34.42
2023-03-11T03:39:29.379Z,28.92
2023-03-11T03:42:01.349Z,30.33
2023-03-11T03:44:34.895Z,31.25
2023-03-11T03:47:05.067Z,31.10
2023-03-11T03:49:35.518Z,35.88
2023-03-11T03:52:07.859Z,37.67
2023-03-11T03:54:39.509Z,36.67
2023-03-11T03:57:09.284Z,35.50
2023-03-11T03:59:46.281Z,33.55
2023-03-11T04:02:16.590Z,25.15
2023-03-11T04:04:48.067Z,23.65
2023-03-11T04:07:18.501Z,30.15
2023-03-11T04:09:48.701Z,34.25
2023-03-11T04:12:19.272Z,97.43
2023-03-11T04:14:50.066Z,81.80
2023-03-11T04:17:20.414Z,31.60
2023-03-11T04:19:51.177Z,29.38
2023-03-11T04:22:21.411Z,26.05
2023-03-11T04:24:51.976Z,23.40
2023-03-11T04:27:22.399Z,21.63
2023-03-11T04:29:52.580Z,18.42
2023-03-11T04:32:24.126Z,22.98
2023-03-11T04:34:54.017Z,21.98
2023-03-11T04:37:24.243Z,28.98
2023-03-11T04:39:54.597Z,22.88
2023-03-11T04:42:24.861Z,26.35
2023-03-11T04:44:55.694Z,22.17
2023-03-11T04:47:26.035Z,24.60
2023-03-11T04:49:57.308Z,29.63
2023-03-11T04:52:27.705Z,25.35
2023-03-11T04:54:57.876Z,22.45
2023-03-11T04:57:28.538Z,24.70
2023-03-11T05:00:00.100Z,27.00
2023-03-11T05:02:31.583Z,24.63
2023-03-11T05:05:03.624Z,18.92
2023-03-11T05:07:33.939Z,34.75
2023-03-11T05:10:05.347Z,37.40
2023-03-11T05:12:36.932Z,38.88
2023-03-11T05:15:07.242Z,40.58
2023-03-11T05:17:37.443Z,34.60
2023-03-11T05:20:08.840Z,36.63
2023-03-11T05:22:39.680Z,29.73
2023-03-11T05:25:09.997Z,25.02
2023-03-11T05:27:40.948Z,27.23
2023-03-11T05:30:12.479Z,21.67
2023-03-11T05:32:44.499Z,41.63
2023-03-11T05:35:15.022Z,24.83
2023-03-11T05:37:45.293Z,32.17
2023-03-11T05:40:15.063Z,28.98
2023-03-11T05:42:45.235Z,27.20
2023-03-11T05:45:16.635Z,30.45
2023-03-11T05:47:49.805Z,24.95
2023-03-11T05:50:20.354Z,22.58
2023-03-11T05:52:52.195Z,27.33
2023-03-11T05:55:23.397Z,31.50
2023-03-11T05:57:54.081Z,36.00
2023-03-11T06:00:25.201Z,28.40
2023-03-11T06:02:55.904Z,35.92
2023-03-11T06:05:25.918Z,38.65
2023-03-11T06:07:57.716Z,29.42
2023-03-11T06:10:27.531Z,97.70
2023-03-11T06:12:57.138Z,46.53
2023-03-11T06:15:40.187Z,57.17
2023-03-11T06:18:12.032Z,37.67
2023-03-11T06:20:43.064Z,31.70
2023-03-11T06:23:13.425Z,39.53
2023-03-11T06:25:43.898Z,58.47
2023-03-11T06:28:14.193Z,29.65
2023-03-11T06:33:17.648Z,22.98
2023-03-11T06:36:01.507Z,22.98
2023-03-11T06:38:33.037Z,28.23
2023-03-11T06:41:05.442Z,25.90
2023-03-11T06:43:37.893Z,29.85
2023-03-11T06:46:13.970Z,37.70
2023-03-11T06:48:44.079Z,27.75
2023-03-11T06:51:15.489Z,28.00
2023-03-11T06:53:46.253Z,58.65
2023-03-11T06:56:16.796Z,123.85
2023-03-11T06:58:52.202Z,69.60
2023-03-11T07:01:25.757Z,62.50
2023-03-11T07:03:57.614Z,86.07
2023-03-11T07:06:29.945Z,27.15
2023-03-11T07:09:14.530Z,45.20
2023-03-11T07:11:47.260Z,28.48
2023-03-11T07:14:23.589Z,26.55
2023-03-11T07:16:57.746Z,32.72
2023-03-11T07:19:36.024Z,27.58
2023-03-11T07:22:06.319Z,26.75
2023-03-11T07:24:36.098Z,29.42
2023-03-11T07:27:07.204Z,31.65
2023-03-11T07:29:36.988Z,37.20
2023-03-11T07:32:09.699Z,28.10
2023-03-11T07:34:40.116Z,29.13
2023-03-11T07:37:10.356Z,29.88
2023-03-11T07:39:41.114Z,28.00
2023-03-11T07:42:11.428Z,33.42
2023-03-11T07:44:41.692Z,36.45
2023-03-11T07:47:11.948Z,30.65
2023-03-11T07:49:41.890Z,37.33
2023-03-11T07:52:12.146Z,27.35
2023-03-11T07:54:41.928Z,29.88
2023-03-11T07:57:18.135Z,49.90
2023-03-11T07:59:47.895Z,124.43
2023-03-11T08:02:18.171Z,73.38
2023-03-11T08:04:47.985Z,41.58
2023-03-11T08:07:18.146Z,39.45
2023-03-11T08:09:48.140Z,36.15
2023-03-11T08:12:18.526Z,38.70
2023-03-11T08:14:49.336Z,33.03
2023-03-11T08:17:19.610Z,36.38
2023-03-11T08:19:51.332Z,32.65
2023-03-11T08:22:21.776Z,59.47
2023-03-11T08:24:54.755Z,36.45
2023-03-11T08:27:24.978Z,35.22
2023-03-11T08:29:59.470Z,35.13
2023-03-11T08:32:33.723Z,30.67
2023-03-11T08:35:05.256Z,30.27
2023-03-11T08:37:35.661Z,43.72
2023-03-11T08:40:07.506Z,40.33
2023-03-11T08:42:38.032Z,36.72
2023-03-11T08:45:10.070Z,36.15
2023-03-11T08:47:41.100Z,82.55
2023-03-11T08:50:16.182Z,82.50
2023-03-11T08:52:51.031Z,134.27
2023-03-11T08:55:26.301Z,59.75
2023-03-11T08:57:58.991Z,38.65
2023-03-11T09:00:29.740Z,95.82
2023-03-11T09:02:59.657Z,72.20
2023-03-11T09:05:29.935Z,31.13
2023-03-11T09:07:59.539Z,43.67
2023-03-11T09:10:29.387Z,71.22
2023-03-11T09:12:59.552Z,38.80
2023-03-11T09:15:31.340Z,36.97
2023-03-11T09:18:01.514Z,30.42
2023-03-11T09:20:32.436Z,38.17
2023-03-11T09:23:03.332Z,191.02
2023-03-11T09:25:35.106Z,23.83
2023-03-11T09:28:05.042Z,27.52
2023-03-11T09:30:35.713Z,26.45
2023-03-11T09:33:07.122Z,33.10
2023-03-11T09:35:39.540Z,29.35
2023-03-11T09:38:09.656Z,28.92
2023-03-11T09:41:17.998Z,22.88
2023-03-11T09:44:00.726Z,27.98
2023-03-11T09:47:01.783Z,24.20
2023-03-11T09:49:50.695Z,27.77
2023-03-11T09:52:34.814Z,39.55
2023-03-11T09:55:07.040Z,29.15
2023-03-11T09:57:42.127Z,28.35
2023-03-11T10:00:14.452Z,39.00
2023-03-11T10:02:44.941Z,25.08
2023-03-11T10:05:28.102Z,25.00
2023-03-11T10:08:31.908Z,25.65
2023-03-11T10:11:28.240Z,26.70
2023-03-11T10:14:18.144Z,25.30
2023-03-11T10:17:02.881Z,42.75
2023-03-11T10:19:58.608Z,27.65
2023-03-11T10:22:43.566Z,27.17
2023-03-11T10:25:44.713Z,27.13
2023-03-11T10:28:19.182Z,30.15
2023-03-11T10:30:59.362Z,24.10
2023-03-11T10:33:51.637Z,27.13
2023-03-11T10:36:42.088Z,21.48
2023-03-11T10:39:13.780Z,26.98
2023-03-11T10:41:55.543Z,24.98
2023-03-11T10:44:32.243Z,20.08
2023-03-11T10:47:03.063Z,19.50
2023-03-11T10:49:32.843Z,17.80
2023-03-11T10:52:05.716Z,15.93
2023-03-11T10:54:48.905Z,19.60
2023-03-11T10:57:37.415Z,14.05
2023-03-11T11:00:19.442Z,16.85
2023-03-11T11:02:59.170Z,17.67
2023-03-11T11:05:37.758Z,14.88
2023-03-11T11:08:18.163Z,16.35
2023-03-11T11:10:55.119Z,15.18
2023-03-11T11:13:32.434Z,14.30
2023-03-11T11:16:06.196Z,14.57
2023-03-11T11:19:03.744Z,15.80
2023-03-11T11:21:53.574Z,14.88
2023-03-11T11:24:31.713Z,16.02
2023-03-11T11:27:25.258Z,12.10
2023-03-11T11:30:20.003Z,15.77
2023-03-11T11:32:49.962Z,14.13
2023-03-11T11:35:21.306Z,12.68
2023-03-11T11:38:03.821Z,11.18
2023-03-11T11:40:34.757Z,16.17
2023-03-11T11:43:36.482Z,10.88
2023-03-11T11:46:34.655Z,14.55
2023-03-11T11:49:12.859Z,10.18
2023-03-11T11:52:07.938Z,13.05
2023-03-11T11:54:44.035Z,15.90
2023-03-11T11:57:19.444Z,14.45
2023-03-11T11:59:49.745Z,15.45
2023-03-11T12:02:53.966Z,14.15
2023-03-11T12:05:35.690Z,16.95
2023-03-11T12:08:27.377Z,14.25
2023-03-11T12:11:05.640Z,21.67
2023-03-11T12:13:56.160Z,12.55
2023-03-11T12:16:43.546Z,14.30
2023-03-11T12:19:13.690Z,15.30
2023-03-11T12:22:15.123Z,15.15
2023-03-11T12:24:51.486Z,12.60
2023-03-11T12:27:46.728Z,13.55
2023-03-11T12:30:24.370Z,13.07
2023-03-11T12:33:04.600Z,11.23
2023-03-11T12:35:38.123Z,9.60
2023-03-11T12:38:29.053Z,9.55
2023-03-11T12:41:02.257Z,9.73
2023-03-11T12:43:34.925Z,11.90
2023-03-11T12:46:09.986Z,9.32
2023-03-11T12:49:09.858Z,10.95
2023-03-11T12:51:41.382Z,7.13
2023-03-11T12:54:29.831Z,6.95
2023-03-11T12:57:03.125Z,8.82
2023-03-11T12:59:41.770Z,8.40
2023-03-11T13:02:11.928Z,10.60
2023-03-11T13:04:53.090Z,12.45
2023-03-11T13:07:40.981Z,8.23
2023-03-11T13:10:35.011Z,6.68
2023-03-11T13:13:32.666Z,9.70
2023-03-11T13:16:14.942Z,10.55
2023-03-11T13:18:50.274Z,7.35
2023-03-11T13:21:29.341Z,8.15
2023-03-11T13:24:23.995Z,7.50
2023-03-11T13:27:07.371Z,11.18
2023-03-11T13:29:53.417Z,8.68
2023-03-11T13:32:29.457Z,11.38
2023-03-11T13:35:20.924Z,10.27
2023-03-11T13:38:09.330Z,10.02
2023-03-11T13:40:47.628Z,8.15
2023-03-11T13:43:26.332Z,10.57
2023-03-11T13:46:02.940Z,9.00
2023-03-11T13:48:49.296Z,9.38
2023-03-11T13:51:42.557Z,5.78
2023-03-11T13:54:21.258Z,7.75
2023-03-11T13:56:58.899Z,9.00
2023-03-11T13:59:35.936Z,9.02
2023-03-11T14:02:19.909Z,9.60
2023-03-11T14:04:53.074Z,9.07
2023-03-11T14:07:32.205Z,6.50
2023-03-11T14:10:23.934Z,9.32
2023-03-11T14:13:06.714Z,8.05
2023-03-11T14:16:05.445Z,6.63
2023-03-11T14:18:43.033Z,8.32
2023-03-11T14:21:22.679Z,7.35
2023-03-11T14:23:55.589Z,7.88
2023-03-11T14:26:35.336Z,8.68
2023-03-11T14:29:20.266Z,8.77
2023-03-11T14:31:50.296Z,9.65
2023-03-11T14:34:29.921Z,9.05
2023-03-11T14:37:01.969Z,10.45
2023-03-11T14:39:33.359Z,10.48
2023-03-11T14:42:08.888Z,10.05
2023-03-11T14:44:44.277Z,9.48
2023-03-11T14:47:25.297Z,8.70
2023-03-11T14:49:56.562Z,9.32
2023-03-11T14:52:50.212Z,9.68
2023-03-11T14:55:28.381Z,8.25
2023-03-11T14:58:13.497Z,9.88
2023-03-11T15:01:08.806Z,7.80
2023-03-11T15:03:46.738Z,9.25
2023-03-11T15:06:27.502Z,7.82
2023-03-11T15:09:02.385Z,7.68
2023-03-11T15:11:34.117Z,7.43
2023-03-11T15:14:32.846Z,5.95
2023-03-11T15:17:42.854Z,6.93
2023-03-11T15:20:32.252Z,8.25
2023-03-11T15:23:04.899Z,8.13
2023-03-11T15:25:38.896Z,6.88
2023-03-11T15:28:26.338Z,6.55
2023-03-11T15:31:23.440Z,7.20
2023-03-11T15:33:53.800Z,6.65
2023-03-11T15:36:36.791Z,4.22
2023-03-11T15:39:32.881Z,4.47
2023-03-11T15:42:16.637Z,6.10
2023-03-11T15:45:15.825Z,6.18
2023-03-11T15:47:48.158Z,5.43
2023-03-11T15:50:40.129Z,7.15
2023-03-11T15:53:12.943Z,6.05
2023-03-11T15:55:43.180Z,5.00
2023-03-11T15:58:15.689Z,7.57
2023-03-11T16:00:54.945Z,5.25
2023-03-11T16:03:25.517Z,5.90
2023-03-11T16:05:55.727Z,6.47
2023-03-11T16:08:25.480Z,6.95
2023-03-11T16:10:55.343Z,4.85
2023-03-11T16:13:24.984Z,6.93
2023-03-11T16:15:55.333Z,8.73
2023-03-11T16:18:25.192Z,6.63
2023-03-11T16:20:56.612Z,6.43
2023-03-11T16:23:29.571Z,6.05
2023-03-11T16:26:03.616Z,5.78
2023-03-11T16:28:33.397Z,5.47
2023-03-11T16:31:03.180Z,5.82
2023-03-11T16:33:34.890Z,5.57
2023-03-11T16:36:07.177Z,6.65
2023-03-11T16:38:49.071Z,4.97
2023-03-11T16:41:19.453Z,5.32
2023-03-11T16:43:50.213Z,3.35
2023-03-11T16:46:20.431Z,4.95
2023-03-11T16:48:50.747Z,5.47
2023-03-11T16:51:20.618Z,7.18
2023-03-11T16:53:50.992Z,5.28
2023-03-11T16:56:20.947Z,5.07
2023-03-11T16:58:51.108Z,3.88
2023-03-11T17:01:22.828Z,7.15
2023-03-11T17:03:53.781Z,5.38
2023-03-11T17:06:23.792Z,6.70
2023-03-11T17:08:53.972Z,5.35
2023-03-11T17:11:29.665Z,5.20
2023-03-11T17:14:15.261Z,8.82
2023-03-11T17:16:46.479Z,5.97
2023-03-11T17:19:17.033Z,6.03
2023-03-11T17:21:46.855Z,7.10
2023-03-11T17:24:17.014Z,5.35
2023-03-11T17:26:46.812Z,5.90
2023-03-11T17:29:16.660Z,4.82
2023-03-11T17:31:46.473Z,6.50
2023-03-11T17:34:16.808Z,7.25
2023-03-11T17:36:46.672Z,8.57
2023-03-11T17:39:16.556Z,8.20
2023-03-11T17:41:47.072Z,5.30
2023-03-11T17:44:17.075Z,6.80
2023-03-11T17:46:47.519Z,9.98
2023-03-11T17:49:17.546Z,8.50
2023-03-11T17:51:47.802Z,8.93
2023-03-11T17:54:18.327Z,10.00
2023-03-11T17:56:48.214Z,9.93
2023-03-11T17:59:18.424Z,10.77
2023-03-11T18:01:48.314Z,11.40
2023-03-11T18:04:20.217Z,10.15
2023-03-11T18:06:50.064Z,8.85
2023-03-11T18:09:20.545Z,9.73
2023-03-11T18:11:50.733Z,11.52
2023-03-11T18:14:24.640Z,10.73
2023-03-11T18:16:54.488Z,10.77
2023-03-11T18:19:24.856Z,11.02
2023-03-11T18:21:54.964Z,11.23
2023-03-11T18:24:25.233Z,10.35
2023-03-11T18:26:55.145Z,12.90
2023-03-11T18:29:27.507Z,13.57
2023-03-11T18:31:58.303Z,12.70
2023-03-11T18:34:28.602Z,12.98
2023-03-11T18:36:58.303Z,14.45
2023-03-11T18:39:28.639Z,13.95
2023-03-11T18:41:58.517Z,13.48
2023-03-11T18:44:29.223Z,15.15
2023-03-11T18:46:59.486Z,15.13
2023-03-11T18:49:30.292Z,13.43
2023-03-11T18:52:00.342Z,13.77
2023-03-11T18:54:31.180Z,13.35
2023-03-11T18:57:01.001Z,13.45
2023-03-11T18:59:32.805Z,14.02
2023-03-11T19:02:03.176Z,16.13
2023-03-11T19:04:34.290Z,15.75
2023-03-11T19:07:04.222Z,13.07
2023-03-11T19:09:34.657Z,14.75
2023-03-11T19:12:04.534Z,13.88
2023-03-11T19:14:35.025Z,15.73
2023-03-11T19:17:04.949Z,15.20
2023-03-11T19:19:35.269Z,13.98
2023-03-11T19:22:05.085Z,15.80
2023-03-11T19:24:36.970Z,16.73
2023-03-11T19:27:09.582Z,13.27
2023-03-11T19:29:41.050Z,15.43
2023-03-11T19:32:10.955Z,16.30
2023-03-11T19:34:41.100Z,12.75
2023-03-11T19:37:12.091Z,12.35
2023-03-11T19:39:41.960Z,15.25
2023-03-11T19:42:11.554Z,14.35
2023-03-11T19:44:42.818Z,14.27
2023-03-11T19:47:12.852Z,13.35
2023-03-11T19:49:43.095Z,14.98
2023-03-11T19:52:13.027Z,15.13
2023-03-11T19:54:43.640Z,17.80
2023-03-11T19:57:13.513Z,16.73
2023-03-11T19:59:43.927Z,19.45
2023-03-11T20:02:15.040Z,19.00
2023-03-11T20:04:45.440Z,17.70
2023-03-11T20:07:15.630Z,20.80
2023-03-11T20:09:45.923Z,19.58
2023-03-11T20:12:15.932Z,22.90
2023-03-11T20:14:47.464Z,23.33
2023-03-11T20:17:17.353Z,24.60
2023-03-11T20:19:47.628Z,23.25
2023-03-11T20:22:17.535Z,22.25
2023-03-11T20:24:47.838Z,21.85
2023-03-11T20:27:17.979Z,21.77
2023-03-11T20:29:48.343Z,21.90
2023-03-11T20:32:18.299Z,24.10
2023-03-11T20:34:48.640Z,24.20
2023-03-11T20:37:18.513Z,23.27
2023-03-11T20:39:48.717Z,23.15
2023-03-11T20:42:18.673Z,24.02
2023-03-11T20:44:55.911Z,23.83
2023-03-11T20:47:25.771Z,23.45
2023-03-11T20:49:58.014Z,23.25
2023-03-11T20:52:29.668Z,23.63
2023-03-11T20:55:00.117Z,24.77
2023-03-11T20:57:30.079Z,23.92
2023-03-11T21:00:00.373Z,25.77
2023-03-11T21:02:32.522Z,23.90
2023-03-11T21:05:03.166Z,25.08
2023-03-11T21:07:32.950Z,23.23
2023-03-11T21:10:04.183Z,24.92
2023-03-11T21:12:34.158Z,23.15
2023-03-11T21:15:03.869Z,23.55
2023-03-11T21:17:35.190Z,24.42
2023-03-11T21:20:07.307Z,22.73
2023-03-11T21:22:37.594Z,21.20
2023-03-11T21:25:08.739Z,23.85
2023-03-11T21:27:39.070Z,21.67
2023-03-11T21:30:09.493Z,19.00
2023-03-11T21:32:39.844Z,25.58
2023-03-11T21:35:10.256Z,20.58
2023-03-11T21:37:43.320Z,18.83
2023-03-11T21:40:14.036Z,19.25
2023-03-11T21:42:44.544Z,17.88
2023-03-11T21:45:14.563Z,15.43
2023-03-11T21:47:44.867Z,16.25
2023-03-11T21:50:14.944Z,15.35
2023-03-11T21:52:45.493Z,16.73
2023-03-11T21:55:15.331Z,14.77
2023-03-11T21:57:45.667Z,14.60
2023-03-11T22:00:16.041Z,18.05
2023-03-11T22:02:47.074Z,16.95
2023-03-11T22:05:17.298Z,17.10
2023-03-11T22:07:47.652Z,13.75
2023-03-11T22:10:18.096Z,16.50
2023-03-11T22:12:48.773Z,14.15
2023-03-11T22:15:18.813Z,10.77
2023-03-11T22:17:49.324Z,11.65
2023-03-11T22:20:19.730Z,13.27
2023-03-11T22:22:50.221Z,13.18
2023-03-11T22:25:20.074Z,11.50
2023-03-11T22:27:50.324Z,12.93
2023-03-11T22:30:20.196Z,13.18
2023-03-11T22:32:50.863Z,12.90
2023-03-11T22:35:21.325Z,10.30
2023-03-11T22:37:52.392Z,13.02
2023-03-11T22:40:22.294Z,12.95
2023-03-11T22:42:53.282Z,13.75
2023-03-11T22:45:24.315Z,10.02
2023-03-11T22:47:55.998Z,14.43
2023-03-11T22:50:25.827Z,13.77
2023-03-11T22:52:56.166Z,11.88
2023-03-11T22:55:26.146Z,11.00
2023-03-11T22:57:56.780Z,8.95
2023-03-11T23:00:27.919Z,11.43
2023-03-11T23:02:58.984Z,19.63
2023-03-11T23:05:31.051Z,7.65
2023-03-11T23:08:01.679Z,9.93
2023-03-11T23:10:32.772Z,9.30
2023-03-11T23:13:06.821Z,8.35
2023-03-11T23:15:36.797Z,15.00
2023-03-11T23:18:10.087Z,9.45
2023-03-11T23:20:42.993Z,10.98
2023-03-11T23:23:14.602Z,8.05
2023-03-11T23:25:46.035Z,7.90
2023-03-11T23:28:16.451Z,11.00
2023-03-11T23:30:46.329Z,11.07
2023-03-11T23:33:19.192Z,12.65
2023-03-11T23:35:49.249Z,9.65
2023-03-11T23:38:19.582Z,7.53
2023-03-11T23:40:49.195Z,5.55
2023-03-11T23:43:21.804Z,11.13
2023-03-11T23:45:52.276Z,7.90
2023-03-11T23:48:22.167Z,7.22
2023-03-11T23:50:52.782Z,10.55
2023-03-11T23:53:24.410Z,10.43
2023-03-11T23:55:56.927Z,14.20
2023-03-11T23:58:27.406Z,10.77
